sensor_id;sensor_type;location;lat;lon;timestamp;pressure;altitude;pressure_sealevel;temperature
19666;BMP180;9980;51.020;7.772;2022-12-05T00:01:37;97327.00;;;7.50
19666;BMP180;9980;51.020;7.772;2022-12-05T00:04:08;97323.00;;;7.50
19666;BMP180;9980;51.020;7.772;2022-12-05T00:06:38;97323.00;;;7.50
19666;BMP180;9980;51.020;7.772;2022-12-05T00:09:07;97332.00;;;7.50
19666;BMP180;9980;51.020;7.772;2022-12-05T00:11:37;97325.00;;;7.50
19666;BMP180;9980;51.020;7.772;2022-12-05T00:14:06;97313.00;;;7.50
19666;BMP180;9980;51.020;7.772;2022-12-05T00:16:36;97322.00;;;7.50
19666;BMP180;9980;51.020;7.772;2022-12-05T00:19:05;97321.00;;;7.50
19666;BMP180;9980;51.020;7.772;2022-12-05T00:21:34;97324.00;;;7.50
19666;BMP180;9980;51.020;7.772;2022-12-05T00:24:04;97322.00;;;7.50
19666;BMP180;9980;51.020;7.772;2022-12-05T00:26:32;97318.00;;;7.60
19666;BMP180;9980;51.020;7.772;2022-12-05T00:28:58;97308.00;;;7.50
19666;BMP180;9980;51.020;7.772;2022-12-05T00:31:26;97312.00;;;7.60
19666;BMP180;9980;51.020;7.772;2022-12-05T00:33:53;97314.00;;;7.60
19666;BMP180;9980;51.020;7.772;2022-12-05T00:36:27;97316.00;;;7.60
19666;BMP180;9980;51.020;7.772;2022-12-05T00:38:54;97313.00;;;7.60
19666;BMP180;9980;51.020;7.772;2022-12-05T00:41:24;97310.00;;;7.50
19666;BMP180;9980;51.020;7.772;2022-12-05T00:43:51;97319.00;;;7.60
19666;BMP180;9980;51.020;7.772;2022-12-05T00:46:22;97324.00;;;7.60
19666;BMP180;9980;51.020;7.772;2022-12-05T00:48:51;97314.00;;;7.60
19666;BMP180;9980;51.020;7.772;2022-12-05T00:51:25;97325.00;;;7.60
19666;BMP180;9980;51.020;7.772;2022-12-05T00:53:58;97315.00;;;7.60
19666;BMP180;9980;51.020;7.772;2022-12-05T00:56:26;97315.00;;;7.60
19666;BMP180;9980;51.020;7.772;2022-12-05T00:58:55;97319.00;;;7.60
19666;BMP180;9980;51.020;7.772;2022-12-05T01:01:26;97321.00;;;7.60
19666;BMP180;9980;51.020;7.772;2022-12-05T01:03:56;97329.00;;;7.60
19666;BMP180;9980;51.020;7.772;2022-12-05T01:06:24;97325.00;;;7.60
19666;BMP180;9980;51.020;7.772;2022-12-05T01:08:53;97341.00;;;7.60
19666;BMP180;9980;51.020;7.772;2022-12-05T01:11:21;97340.00;;;7.60
19666;BMP180;9980;51.020;7.772;2022-12-05T01:13:48;97341.00;;;7.60
19666;BMP180;9980;51.020;7.772;2022-12-05T01:16:29;97323.00;;;7.60
19666;BMP180;9980;51.020;7.772;2022-12-05T01:18:59;97332.00;;;7.60
19666;BMP180;9980;51.020;7.772;2022-12-05T01:21:25;97341.00;;;7.60
19666;BMP180;9980;51.020;7.772;2022-12-05T01:23:52;97337.00;;;7.60
19666;BMP180;9980;51.020;7.772;2022-12-05T01:26:20;97330.00;;;7.60
19666;BMP180;9980;51.020;7.772;2022-12-05T01:28:48;97333.00;;;7.60
19666;BMP180;9980;51.020;7.772;2022-12-05T01:33:51;97339.00;;;7.50
19666;BMP180;9980;51.020;7.772;2022-12-05T01:36:18;97333.00;;;7.60
19666;BMP180;9980;51.020;7.772;2022-12-05T01:38:45;97335.00;;;7.50
19666;BMP180;9980;51.020;7.772;2022-12-05T01:41:19;97344.00;;;7.60
19666;BMP180;9980;51.020;7.772;2022-12-05T01:46:34;97333.00;;;7.50
19666;BMP180;9980;51.020;7.772;2022-12-05T01:49:16;97346.00;;;7.60
19666;BMP180;9980;51.020;7.772;2022-12-05T01:51:48;97330.00;;;7.50
19666;BMP180;9980;51.020;7.772;2022-12-05T01:54:17;97342.00;;;7.50
19666;BMP180;9980;51.020;7.772;2022-12-05T01:56:55;97340.00;;;7.50
19666;BMP180;9980;51.020;7.772;2022-12-05T01:59:23;97344.00;;;7.50
19666;BMP180;9980;51.020;7.772;2022-12-05T02:01:51;97338.00;;;7.50
19666;BMP180;9980;51.020;7.772;2022-12-05T02:04:18;97340.00;;;7.50
19666;BMP180;9980;51.020;7.772;2022-12-05T02:06:45;97346.00;;;7.50
19666;BMP180;9980;51.020;7.772;2022-12-05T02:09:12;97354.00;;;7.50
19666;BMP180;9980;51.020;7.772;2022-12-05T02:12:00;97338.00;;;7.50
19666;BMP180;9980;51.020;7.772;2022-12-05T02:24:17;97348.00;;;7.40
19666;BMP180;9980;51.020;7.772;2022-12-05T02:27:25;97361.00;;;7.40
19666;BMP180;9980;51.020;7.772;2022-12-05T02:30:03;97366.00;;;7.30
19666;BMP180;9980;51.020;7.772;2022-12-05T02:32:47;97359.00;;;7.30
19666;BMP180;9980;51.020;7.772;2022-12-05T02:41:33;97359.00;;;7.30
19666;BMP180;9980;51.020;7.772;2022-12-05T02:46:44;97374.00;;;7.30
19666;BMP180;9980;51.020;7.772;2022-12-05T02:49:18;97359.00;;;7.20
19666;BMP180;9980;51.020;7.772;2022-12-05T02:51:51;97363.00;;;7.20
19666;BMP180;9980;51.020;7.772;2022-12-05T02:54:28;97359.00;;;7.20
19666;BMP180;9980;51.020;7.772;2022-12-05T02:56:58;97361.00;;;7.20
19666;BMP180;9980;51.020;7.772;2022-12-05T02:59:26;97365.00;;;7.20
19666;BMP180;9980;51.020;7.772;2022-12-05T03:01:52;97362.00;;;7.20
19666;BMP180;9980;51.020;7.772;2022-12-05T03:04:22;97359.00;;;7.20
19666;BMP180;9980;51.020;7.772;2022-12-05T03:06:57;97368.00;;;7.20
19666;BMP180;9980;51.020;7.772;2022-12-05T03:09:43;97364.00;;;7.10
19666;BMP180;9980;51.020;7.772;2022-12-05T03:12:26;97371.00;;;7.10
19666;BMP180;9980;51.020;7.772;2022-12-05T03:15:13;97370.00;;;7.10
19666;BMP180;9980;51.020;7.772;2022-12-05T03:17:59;97372.00;;;7.10
19666;BMP180;9980;51.020;7.772;2022-12-05T03:20:44;97368.00;;;7.10
19666;BMP180;9980;51.020;7.772;2022-12-05T03:23:25;97374.00;;;7.10
19666;BMP180;9980;51.020;7.772;2022-12-05T03:26:04;97374.00;;;7.10
19666;BMP180;9980;51.020;7.772;2022-12-05T03:31:51;97388.00;;;7.10
19666;BMP180;9980;51.020;7.772;2022-12-05T03:37:38;97384.00;;;7.00
19666;BMP180;9980;51.020;7.772;2022-12-05T03:40:32;97390.00;;;7.00
19666;BMP180;9980;51.020;7.772;2022-12-05T03:45:53;97374.00;;;7.00
19666;BMP180;9980;51.020;7.772;2022-12-05T03:48:37;97385.00;;;7.00
19666;BMP180;9980;51.020;7.772;2022-12-05T03:51:14;97393.00;;;7.00
19666;BMP180;9980;51.020;7.772;2022-12-05T03:57:14;97380.00;;;7.00
19666;BMP180;9980;51.020;7.772;2022-12-05T04:00:10;97387.00;;;7.00
19666;BMP180;9980;51.020;7.772;2022-12-05T04:03:09;97389.00;;;7.00
19666;BMP180;9980;51.020;7.772;2022-12-05T04:05:58;97392.00;;;6.90
19666;BMP180;9980;51.020;7.772;2022-12-05T04:08:43;97389.00;;;6.90
19666;BMP180;9980;51.020;7.772;2022-12-05T04:11:17;97386.00;;;7.00
19666;BMP180;9980;51.020;7.772;2022-12-05T04:14:08;97386.00;;;6.90
19666;BMP180;9980;51.020;7.772;2022-12-05T04:16:54;97384.00;;;6.90
19666;BMP180;9980;51.020;7.772;2022-12-05T04:19:56;97389.00;;;6.90
19666;BMP180;9980;51.020;7.772;2022-12-05T04:22:43;97373.00;;;6.90
19666;BMP180;9980;51.020;7.772;2022-12-05T04:25:15;97374.00;;;6.90
19666;BMP180;9980;51.020;7.772;2022-12-05T04:28:38;97390.00;;;6.90
19666;BMP180;9980;51.020;7.772;2022-12-05T04:31:24;97399.00;;;6.90
19666;BMP180;9980;51.020;7.772;2022-12-05T04:33:56;97385.00;;;6.90
19666;BMP180;9980;51.020;7.772;2022-12-05T04:36:59;97403.00;;;6.90
19666;BMP180;9980;51.020;7.772;2022-12-05T04:39:36;97384.00;;;6.90
19666;BMP180;9980;51.020;7.772;2022-12-05T04:42:13;97411.00;;;6.90
19666;BMP180;9980;51.020;7.772;2022-12-05T04:44:53;97393.00;;;6.90
19666;BMP180;9980;51.020;7.772;2022-12-05T04:47:26;97410.00;;;6.90
19666;BMP180;9980;51.020;7.772;2022-12-05T04:49:54;97401.00;;;6.90
19666;BMP180;9980;51.020;7.772;2022-12-05T04:52:22;97406.00;;;6.90
19666;BMP180;9980;51.020;7.772;2022-12-05T04:55:14;97396.00;;;6.90
19666;BMP180;9980;51.020;7.772;2022-12-05T05:00:29;97400.00;;;6.90
19666;BMP180;9980;51.020;7.772;2022-12-05T05:03:21;97401.00;;;6.90
19666;BMP180;9980;51.020;7.772;2022-12-05T05:05:53;97404.00;;;6.90
19666;BMP180;9980;51.020;7.772;2022-12-05T05:08:24;97401.00;;;6.90
19666;BMP180;9980;51.020;7.772;2022-12-05T05:11:12;97401.00;;;6.90
19666;BMP180;9980;51.020;7.772;2022-12-05T05:13:39;97405.00;;;6.90
19666;BMP180;9980;51.020;7.772;2022-12-05T05:16:06;97400.00;;;6.90
19666;BMP180;9980;51.020;7.772;2022-12-05T05:18:33;97409.00;;;6.90
19666;BMP180;9980;51.020;7.772;2022-12-05T05:20:59;97409.00;;;6.90
19666;BMP180;9980;51.020;7.772;2022-12-05T05:23:25;97421.00;;;6.90
19666;BMP180;9980;51.020;7.772;2022-12-05T05:25:54;97425.00;;;6.90
19666;BMP180;9980;51.020;7.772;2022-12-05T05:28:21;97419.00;;;6.90
19666;BMP180;9980;51.020;7.772;2022-12-05T05:30:48;97421.00;;;6.90
19666;BMP180;9980;51.020;7.772;2022-12-05T05:33:15;97432.00;;;6.90
19666;BMP180;9980;51.020;7.772;2022-12-05T05:35:41;97413.00;;;6.90
19666;BMP180;9980;51.020;7.772;2022-12-05T05:38:08;97414.00;;;6.90
19666;BMP180;9980;51.020;7.772;2022-12-05T05:40:35;97407.00;;;6.90
19666;BMP180;9980;51.020;7.772;2022-12-05T05:43:03;97417.00;;;6.90
19666;BMP180;9980;51.020;7.772;2022-12-05T05:45:29;97425.00;;;6.90
19666;BMP180;9980;51.020;7.772;2022-12-05T05:47:55;97416.00;;;6.90
19666;BMP180;9980;51.020;7.772;2022-12-05T05:50:21;97407.00;;;6.90
19666;BMP180;9980;51.020;7.772;2022-12-05T05:52:50;97410.00;;;6.90
19666;BMP180;9980;51.020;7.772;2022-12-05T05:55:17;97421.00;;;6.90
19666;BMP180;9980;51.020;7.772;2022-12-05T05:57:43;97436.00;;;6.90
19666;BMP180;9980;51.020;7.772;2022-12-05T06:00:10;97420.00;;;6.90
19666;BMP180;9980;51.020;7.772;2022-12-05T06:02:36;97421.00;;;6.90
19666;BMP180;9980;51.020;7.772;2022-12-05T06:05:04;97415.00;;;6.90
19666;BMP180;9980;51.020;7.772;2022-12-05T06:07:30;97438.00;;;6.90
19666;BMP180;9980;51.020;7.772;2022-12-05T06:09:57;97443.00;;;6.90
19666;BMP180;9980;51.020;7.772;2022-12-05T06:12:23;97437.00;;;6.90
19666;BMP180;9980;51.020;7.772;2022-12-05T06:14:50;97429.00;;;6.90
19666;BMP180;9980;51.020;7.772;2022-12-05T06:17:16;97445.00;;;6.90
19666;BMP180;9980;51.020;7.772;2022-12-05T06:19:45;97432.00;;;6.90
19666;BMP180;9980;51.020;7.772;2022-12-05T06:22:12;97435.00;;;6.90
19666;BMP180;9980;51.020;7.772;2022-12-05T06:24:38;97435.00;;;6.90
19666;BMP180;9980;51.020;7.772;2022-12-05T06:27:04;97437.00;;;6.90
19666;BMP180;9980;51.020;7.772;2022-12-05T06:29:34;97419.00;;;6.90
19666;BMP180;9980;51.020;7.772;2022-12-05T06:32:01;97455.00;;;6.90
19666;BMP180;9980;51.020;7.772;2022-12-05T06:34:28;97450.00;;;6.90
19666;BMP180;9980;51.020;7.772;2022-12-05T06:36:54;97449.00;;;6.90
19666;BMP180;9980;51.020;7.772;2022-12-05T06:39:20;97450.00;;;6.90
19666;BMP180;9980;51.020;7.772;2022-12-05T06:41:46;97439.00;;;6.90
19666;BMP180;9980;51.020;7.772;2022-12-05T06:44:12;97442.00;;;6.90
19666;BMP180;9980;51.020;7.772;2022-12-05T06:46:39;97458.00;;;6.90
19666;BMP180;9980;51.020;7.772;2022-12-05T06:49:05;97451.00;;;6.90
19666;BMP180;9980;51.020;7.772;2022-12-05T06:51:31;97452.00;;;6.90
19666;BMP180;9980;51.020;7.772;2022-12-05T06:53:57;97454.00;;;6.90
19666;BMP180;9980;51.020;7.772;2022-12-05T06:56:23;97451.00;;;6.90
19666;BMP180;9980;51.020;7.772;2022-12-05T06:58:49;97459.00;;;6.90
19666;BMP180;9980;51.020;7.772;2022-12-05T07:01:20;97461.00;;;6.80
19666;BMP180;9980;51.020;7.772;2022-12-05T07:04:19;97457.00;;;6.80
19666;BMP180;9980;51.020;7.772;2022-12-05T07:06:46;97443.00;;;6.90
19666;BMP180;9980;51.020;7.772;2022-12-05T07:09:23;97461.00;;;6.80
19666;BMP180;9980;51.020;7.772;2022-12-05T07:12:11;97472.00;;;6.90
19666;BMP180;9980;51.020;7.772;2022-12-05T07:14:40;97465.00;;;6.80
19666;BMP180;9980;51.020;7.772;2022-12-05T07:17:18;97466.00;;;6.80
19666;BMP180;9980;51.020;7.772;2022-12-05T07:19:47;97467.00;;;6.80
19666;BMP180;9980;51.020;7.772;2022-12-05T07:22:18;97477.00;;;6.90
19666;BMP180;9980;51.020;7.772;2022-12-05T07:24:45;97485.00;;;6.80
19666;BMP180;9980;51.020;7.772;2022-12-05T07:27:13;97489.00;;;6.90
19666;BMP180;9980;51.020;7.772;2022-12-05T07:29:40;97481.00;;;6.90
19666;BMP180;9980;51.020;7.772;2022-12-05T07:32:07;97485.00;;;6.90
19666;BMP180;9980;51.020;7.772;2022-12-05T07:34:34;97483.00;;;6.90
19666;BMP180;9980;51.020;7.772;2022-12-05T07:37:00;97492.00;;;6.90
19666;BMP180;9980;51.020;7.772;2022-12-05T07:39:29;97504.00;;;6.90
19666;BMP180;9980;51.020;7.772;2022-12-05T07:41:55;97491.00;;;6.90
19666;BMP180;9980;51.020;7.772;2022-12-05T07:44:22;97505.00;;;6.90
19666;BMP180;9980;51.020;7.772;2022-12-05T07:46:48;97496.00;;;6.90
19666;BMP180;9980;51.020;7.772;2022-12-05T07:49:14;97500.00;;;6.90
19666;BMP180;9980;51.020;7.772;2022-12-05T07:51:41;97492.00;;;7.00
19666;BMP180;9980;51.020;7.772;2022-12-05T07:54:07;97501.00;;;7.00
19666;BMP180;9980;51.020;7.772;2022-12-05T07:56:33;97509.00;;;7.00
19666;BMP180;9980;51.020;7.772;2022-12-05T07:58:59;97500.00;;;7.00
19666;BMP180;9980;51.020;7.772;2022-12-05T08:01:28;97502.00;;;7.00
19666;BMP180;9980;51.020;7.772;2022-12-05T08:03:57;97513.00;;;7.00
19666;BMP180;9980;51.020;7.772;2022-12-05T08:06:29;97498.00;;;7.00
19666;BMP180;9980;51.020;7.772;2022-12-05T08:08:56;97514.00;;;7.00
19666;BMP180;9980;51.020;7.772;2022-12-05T08:11:29;97522.00;;;7.00
19666;BMP180;9980;51.020;7.772;2022-12-05T08:13:57;97519.00;;;7.10
19666;BMP180;9980;51.020;7.772;2022-12-05T08:16:27;97520.00;;;7.10
19666;BMP180;9980;51.020;7.772;2022-12-05T08:19:03;97533.00;;;7.10
19666;BMP180;9980;51.020;7.772;2022-12-05T08:21:30;97519.00;;;7.10
19666;BMP180;9980;51.020;7.772;2022-12-05T08:23:57;97536.00;;;7.20
19666;BMP180;9980;51.020;7.772;2022-12-05T08:26:26;97533.00;;;7.20
19666;BMP180;9980;51.020;7.772;2022-12-05T08:29:14;97527.00;;;7.20
19666;BMP180;9980;51.020;7.772;2022-12-05T08:31:47;97535.00;;;7.20
19666;BMP180;9980;51.020;7.772;2022-12-05T08:34:17;97537.00;;;7.20
19666;BMP180;9980;51.020;7.772;2022-12-05T08:36:43;97549.00;;;7.30
19666;BMP180;9980;51.020;7.772;2022-12-05T08:39:14;97545.00;;;7.20
19666;BMP180;9980;51.020;7.772;2022-12-05T08:41:46;97556.00;;;7.30
19666;BMP180;9980;51.020;7.772;2022-12-05T08:44:14;97553.00;;;7.30
19666;BMP180;9980;51.020;7.772;2022-12-05T08:46:47;97557.00;;;7.30
19666;BMP180;9980;51.020;7.772;2022-12-05T08:49:14;97550.00;;;7.30
19666;BMP180;9980;51.020;7.772;2022-12-05T08:51:41;97568.00;;;7.30
19666;BMP180;9980;51.020;7.772;2022-12-05T08:54:08;97548.00;;;7.30
19666;BMP180;9980;51.020;7.772;2022-12-05T08:56:34;97559.00;;;7.40
19666;BMP180;9980;51.020;7.772;2022-12-05T08:59:01;97543.00;;;7.40
19666;BMP180;9980;51.020;7.772;2022-12-05T09:01:32;97549.00;;;7.40
19666;BMP180;9980;51.020;7.772;2022-12-05T09:04:00;97560.00;;;7.40
19666;BMP180;9980;51.020;7.772;2022-12-05T09:06:28;97560.00;;;7.50
19666;BMP180;9980;51.020;7.772;2022-12-05T09:09:01;97548.00;;;7.50
19666;BMP180;9980;51.020;7.772;2022-12-05T09:11:33;97568.00;;;7.50
19666;BMP180;9980;51.020;7.772;2022-12-05T09:14:04;97549.00;;;7.50
19666;BMP180;9980;51.020;7.772;2022-12-05T09:16:35;97556.00;;;7.50
19666;BMP180;9980;51.020;7.772;2022-12-05T09:19:14;97562.00;;;7.50
19666;BMP180;9980;51.020;7.772;2022-12-05T09:21:44;97568.00;;;7.60
19666;BMP180;9980;51.020;7.772;2022-12-05T09:24:12;97569.00;;;7.60
19666;BMP180;9980;51.020;7.772;2022-12-05T09:26:39;97573.00;;;7.60
19666;BMP180;9980;51.020;7.772;2022-12-05T09:29:06;97570.00;;;7.60
19666;BMP180;9980;51.020;7.772;2022-12-05T09:31:41;97555.00;;;7.60
19666;BMP180;9980;51.020;7.772;2022-12-05T09:34:08;97562.00;;;7.60
19666;BMP180;9980;51.020;7.772;2022-12-05T09:36:35;97557.00;;;7.60
19666;BMP180;9980;51.020;7.772;2022-12-05T09:39:05;97569.00;;;7.60
19666;BMP180;9980;51.020;7.772;2022-12-05T09:55:51;97594.00;;;7.70
19666;BMP180;9980;51.020;7.772;2022-12-05T09:58:21;97578.00;;;7.70
19666;BMP180;9980;51.020;7.772;2022-12-05T10:01:02;97576.00;;;7.70
19666;BMP180;9980;51.020;7.772;2022-12-05T10:03:35;97573.00;;;7.70
19666;BMP180;9980;51.020;7.772;2022-12-05T10:06:16;97579.00;;;7.70
19666;BMP180;9980;51.020;7.772;2022-12-05T10:09:19;97586.00;;;7.70
19666;BMP180;9980;51.020;7.772;2022-12-05T10:12:04;97573.00;;;7.70
19666;BMP180;9980;51.020;7.772;2022-12-05T10:17:38;97577.00;;;7.70
19666;BMP180;9980;51.020;7.772;2022-12-05T10:23:29;97570.00;;;7.70
19666;BMP180;9980;51.020;7.772;2022-12-05T10:26:16;97581.00;;;7.70
19666;BMP180;9980;51.020;7.772;2022-12-05T10:31:34;97579.00;;;7.70
19666;BMP180;9980;51.020;7.772;2022-12-05T10:37:23;97573.00;;;7.70
19666;BMP180;9980;51.020;7.772;2022-12-05T10:39:51;97565.00;;;7.70
19666;BMP180;9980;51.020;7.772;2022-12-05T10:42:34;97566.00;;;7.70
19666;BMP180;9980;51.020;7.772;2022-12-05T10:45:27;97562.00;;;7.70
19666;BMP180;9980;51.020;7.772;2022-12-05T10:47:56;97587.00;;;7.80
19666;BMP180;9980;51.020;7.772;2022-12-05T10:50:30;97556.00;;;7.80
19666;BMP180;9980;51.020;7.772;2022-12-05T10:53:01;97570.00;;;7.80
19666;BMP180;9980;51.020;7.772;2022-12-05T10:55:35;97561.00;;;7.80
19666;BMP180;9980;51.020;7.772;2022-12-05T11:00:47;97559.00;;;7.80
19666;BMP180;9980;51.020;7.772;2022-12-05T11:03:35;97559.00;;;7.80
19666;BMP180;9980;51.020;7.772;2022-12-05T11:06:14;97567.00;;;7.80
19666;BMP180;9980;51.020;7.772;2022-12-05T11:08:42;97565.00;;;7.80
19666;BMP180;9980;51.020;7.772;2022-12-05T11:11:32;97551.00;;;7.80
19666;BMP180;9980;51.020;7.772;2022-12-05T11:14:04;97556.00;;;7.80
19666;BMP180;9980;51.020;7.772;2022-12-05T11:16:38;97556.00;;;7.80
19666;BMP180;9980;51.020;7.772;2022-12-05T11:19:37;97562.00;;;7.70
19666;BMP180;9980;51.020;7.772;2022-12-05T11:22:05;97548.00;;;7.80
19666;BMP180;9980;51.020;7.772;2022-12-05T11:24:38;97551.00;;;7.80
19666;BMP180;9980;51.020;7.772;2022-12-05T11:27:28;97554.00;;;7.70
19666;BMP180;9980;51.020;7.772;2022-12-05T11:32:38;97536.00;;;7.70
19666;BMP180;9980;51.020;7.772;2022-12-05T11:37:59;97557.00;;;7.70
19666;BMP180;9980;51.020;7.772;2022-12-05T11:49:36;97560.00;;;7.60
19666;BMP180;9980;51.020;7.772;2022-12-05T11:52:34;97567.00;;;7.60
19666;BMP180;9980;51.020;7.772;2022-12-05T11:55:49;97567.00;;;7.60
19666;BMP180;9980;51.020;7.772;2022-12-05T12:05:21;97560.00;;;7.60
19666;BMP180;9980;51.020;7.772;2022-12-05T12:14:14;97564.00;;;7.60
19666;BMP180;9980;51.020;7.772;2022-12-05T12:17:16;97561.00;;;7.60
19666;BMP180;9980;51.020;7.772;2022-12-05T12:26:09;97560.00;;;7.60
19666;BMP180;9980;51.020;7.772;2022-12-05T12:31:38;97556.00;;;7.60
19666;BMP180;9980;51.020;7.772;2022-12-05T12:37:47;97561.00;;;7.60
19666;BMP180;9980;51.020;7.772;2022-12-05T12:43:52;97552.00;;;7.50
19666;BMP180;9980;51.020;7.772;2022-12-05T12:46:49;97558.00;;;7.50
19666;BMP180;9980;51.020;7.772;2022-12-05T12:50:21;97557.00;;;7.60
19666;BMP180;9980;51.020;7.772;2022-12-05T12:58:45;97565.00;;;7.50
19666;BMP180;9980;51.020;7.772;2022-12-05T13:01:40;97557.00;;;7.50
19666;BMP180;9980;51.020;7.772;2022-12-05T13:04:14;97577.00;;;7.50
19666;BMP180;9980;51.020;7.772;2022-12-05T13:07:09;97569.00;;;7.50
19666;BMP180;9980;51.020;7.772;2022-12-05T13:12:30;97553.00;;;7.50
19666;BMP180;9980;51.020;7.772;2022-12-05T13:15:04;97559.00;;;7.50
19666;BMP180;9980;51.020;7.772;2022-12-05T13:17:32;97566.00;;;7.50
19666;BMP180;9980;51.020;7.772;2022-12-05T13:19:59;97563.00;;;7.50
19666;BMP180;9980;51.020;7.772;2022-12-05T13:22:27;97572.00;;;7.50
19666;BMP180;9980;51.020;7.772;2022-12-05T13:24:54;97549.00;;;7.50
19666;BMP180;9980;51.020;7.772;2022-12-05T13:27:26;97555.00;;;7.50
19666;BMP180;9980;51.020;7.772;2022-12-05T13:30:00;97569.00;;;7.50
19666;BMP180;9980;51.020;7.772;2022-12-05T13:32:34;97562.00;;;7.50
19666;BMP180;9980;51.020;7.772;2022-12-05T13:35:27;97553.00;;;7.40
19666;BMP180;9980;51.020;7.772;2022-12-05T13:38:43;97558.00;;;7.40
19666;BMP180;9980;51.020;7.772;2022-12-05T13:41:41;97553.00;;;7.40
19666;BMP180;9980;51.020;7.772;2022-12-05T13:47:02;97559.00;;;7.40
19666;BMP180;9980;51.020;7.772;2022-12-05T13:49:52;97567.00;;;7.40
19666;BMP180;9980;51.020;7.772;2022-12-05T13:52:29;97570.00;;;7.40
19666;BMP180;9980;51.020;7.772;2022-12-05T13:55:26;97564.00;;;7.40
19666;BMP180;9980;51.020;7.772;2022-12-05T14:00:50;97569.00;;;7.40
19666;BMP180;9980;51.020;7.772;2022-12-05T14:17:42;97551.00;;;7.40
19666;BMP180;9980;51.020;7.772;2022-12-05T14:20:44;97561.00;;;7.30
19666;BMP180;9980;51.020;7.772;2022-12-05T14:30:03;97580.00;;;7.30
19666;BMP180;9980;51.020;7.772;2022-12-05T14:32:35;97574.00;;;7.30
19666;BMP180;9980;51.020;7.772;2022-12-05T14:35:13;97576.00;;;7.20
19666;BMP180;9980;51.020;7.772;2022-12-05T14:37:58;97578.00;;;7.20
19666;BMP180;9980;51.020;7.772;2022-12-05T14:40:41;97569.00;;;7.20
19666;BMP180;9980;51.020;7.772;2022-12-05T14:43:32;97578.00;;;7.20
19666;BMP180;9980;51.020;7.772;2022-12-05T14:46:02;97584.00;;;7.20
19666;BMP180;9980;51.020;7.772;2022-12-05T14:48:36;97576.00;;;7.20
19666;BMP180;9980;51.020;7.772;2022-12-05T14:54:15;97582.00;;;7.10
19666;BMP180;9980;51.020;7.772;2022-12-05T14:56:48;97587.00;;;7.10
19666;BMP180;9980;51.020;7.772;2022-12-05T15:00:04;97572.00;;;7.10
19666;BMP180;9980;51.020;7.772;2022-12-05T15:02:43;97573.00;;;7.10
19666;BMP180;9980;51.020;7.772;2022-12-05T15:05:24;97585.00;;;7.10
19666;BMP180;9980;51.020;7.772;2022-12-05T15:07:55;97573.00;;;7.10
19666;BMP180;9980;51.020;7.772;2022-12-05T15:10:31;97591.00;;;7.10
19666;BMP180;9980;51.020;7.772;2022-12-05T15:13:14;97585.00;;;7.10
19666;BMP180;9980;51.020;7.772;2022-12-05T15:15:50;97598.00;;;7.10
19666;BMP180;9980;51.020;7.772;2022-12-05T15:18:30;97601.00;;;7.10
19666;BMP180;9980;51.020;7.772;2022-12-05T15:23:57;97604.00;;;7.10
19666;BMP180;9980;51.020;7.772;2022-12-05T15:26:28;97599.00;;;7.10
19666;BMP180;9980;51.020;7.772;2022-12-05T15:29:22;97603.00;;;7.10
19666;BMP180;9980;51.020;7.772;2022-12-05T15:32:15;97602.00;;;7.00
19666;BMP180;9980;51.020;7.772;2022-12-05T15:35:05;97611.00;;;7.00
19666;BMP180;9980;51.020;7.772;2022-12-05T15:40:18;97607.00;;;7.00
19666;BMP180;9980;51.020;7.772;2022-12-05T15:42:53;97623.00;;;7.00
19666;BMP180;9980;51.020;7.772;2022-12-05T15:45:23;97623.00;;;7.00
19666;BMP180;9980;51.020;7.772;2022-12-05T15:50:57;97623.00;;;7.00
19666;BMP180;9980;51.020;7.772;2022-12-05T15:56:05;97617.00;;;7.00
19666;BMP180;9980;51.020;7.772;2022-12-05T15:58:57;97614.00;;;7.00
19666;BMP180;9980;51.020;7.772;2022-12-05T16:01:28;97623.00;;;7.00
19666;BMP180;9980;51.020;7.772;2022-12-05T16:06:36;97627.00;;;7.00
19666;BMP180;9980;51.020;7.772;2022-12-05T16:09:08;97611.00;;;7.00
19666;BMP180;9980;51.020;7.772;2022-12-05T16:11:37;97618.00;;;7.00
19666;BMP180;9980;51.020;7.772;2022-12-05T16:14:06;97625.00;;;7.00
19666;BMP180;9980;51.020;7.772;2022-12-05T16:16:37;97630.00;;;7.00
19666;BMP180;9980;51.020;7.772;2022-12-05T16:19:14;97617.00;;;7.00
19666;BMP180;9980;51.020;7.772;2022-12-05T16:21:45;97620.00;;;6.90
19666;BMP180;9980;51.020;7.772;2022-12-05T16:24:28;97612.00;;;6.90
19666;BMP180;9980;51.020;7.772;2022-12-05T16:27:16;97621.00;;;7.00
19666;BMP180;9980;51.020;7.772;2022-12-05T16:29:43;97620.00;;;7.00
19666;BMP180;9980;51.020;7.772;2022-12-05T16:32:23;97625.00;;;6.90
19666;BMP180;9980;51.020;7.772;2022-12-05T16:34:50;97639.00;;;7.00
19666;BMP180;9980;51.020;7.772;2022-12-05T16:37:27;97613.00;;;7.00
19666;BMP180;9980;51.020;7.772;2022-12-05T16:39:55;97630.00;;;7.00
19666;BMP180;9980;51.020;7.772;2022-12-05T16:42:28;97633.00;;;7.00
19666;BMP180;9980;51.020;7.772;2022-12-05T16:44:59;97631.00;;;7.00
19666;BMP180;9980;51.020;7.772;2022-12-05T16:47:56;97635.00;;;7.00
19666;BMP180;9980;51.020;7.772;2022-12-05T16:50:32;97640.00;;;7.00
19666;BMP180;9980;51.020;7.772;2022-12-05T16:53:31;97634.00;;;7.00
19666;BMP180;9980;51.020;7.772;2022-12-05T16:55:59;97636.00;;;7.00
19666;BMP180;9980;51.020;7.772;2022-12-05T16:58:28;97649.00;;;7.00
19666;BMP180;9980;51.020;7.772;2022-12-05T17:01:21;97648.00;;;6.90
19666;BMP180;9980;51.020;7.772;2022-12-05T17:03:54;97655.00;;;7.00
19666;BMP180;9980;51.020;7.772;2022-12-05T17:06:23;97654.00;;;7.00
19666;BMP180;9980;51.020;7.772;2022-12-05T17:08:52;97652.00;;;7.00
19666;BMP180;9980;51.020;7.772;2022-12-05T17:11:29;97630.00;;;7.00
19666;BMP180;9980;51.020;7.772;2022-12-05T17:13:58;97648.00;;;7.00
19666;BMP180;9980;51.020;7.772;2022-12-05T17:16:25;97635.00;;;7.00
19666;BMP180;9980;51.020;7.772;2022-12-05T17:18:52;97632.00;;;7.00
19666;BMP180;9980;51.020;7.772;2022-12-05T17:21:22;97638.00;;;7.00
19666;BMP180;9980;51.020;7.772;2022-12-05T17:23:50;97641.00;;;7.00
19666;BMP180;9980;51.020;7.772;2022-12-05T17:26:19;97641.00;;;7.00
19666;BMP180;9980;51.020;7.772;2022-12-05T17:28:49;97651.00;;;7.00
19666;BMP180;9980;51.020;7.772;2022-12-05T17:31:19;97657.00;;;7.00
19666;BMP180;9980;51.020;7.772;2022-12-05T17:33:47;97644.00;;;7.00
19666;BMP180;9980;51.020;7.772;2022-12-05T17:36:15;97664.00;;;7.00
19666;BMP180;9980;51.020;7.772;2022-12-05T17:38:42;97655.00;;;7.00
19666;BMP180;9980;51.020;7.772;2022-12-05T17:41:18;97654.00;;;6.90
19666;BMP180;9980;51.020;7.772;2022-12-05T17:43:45;97651.00;;;7.00
19666;BMP180;9980;51.020;7.772;2022-12-05T17:46:19;97641.00;;;6.90
19666;BMP180;9980;51.020;7.772;2022-12-05T17:48:46;97660.00;;;7.00
19666;BMP180;9980;51.020;7.772;2022-12-05T17:51:13;97648.00;;;6.90
19666;BMP180;9980;51.020;7.772;2022-12-05T17:53:41;97662.00;;;6.90
19666;BMP180;9980;51.020;7.772;2022-12-05T17:56:07;97638.00;;;6.90
19666;BMP180;9980;51.020;7.772;2022-12-05T17:58:34;97645.00;;;6.90
19666;BMP180;9980;51.020;7.772;2022-12-05T18:01:00;97631.00;;;6.90